Time;durP1;ratioP1;P1;durP2;ratioP2;P2;SDS_P1;SDS_P2;PMS_P1;PMS_P2;Temp;Humidity;BMP_temperature;BMP_pressure;BME280_temperature;BME280_humidity;BME280_pressure;Samples;Min_cycle;Max_cycle;Signal;HPM_P1;HPM_P2
2022/04/18 00:01:58;;;;;;;6.30;4.80;;;;;;;;;;5021389;28;20061;-67
2022/04/18 00:04:23;;;;;;;6.85;5.38;;;;;;;;;;5021451;28;20445;-67
2022/04/18 00:06:49;;;;;;;6.93;5.18;;;;;;;;;;5021365;28;20040;-68
2022/04/18 00:09:15;;;;;;;8.63;4.60;;;;;;;;;;5024354;28;20037;-68
2022/04/18 00:11:40;;;;;;;6.97;5.22;;;;;;;;;;5019194;28;20041;-67
2022/04/18 00:14:06;;;;;;;6.18;4.75;;;;;;;;;;5021025;28;20061;-68
2022/04/18 00:16:31;;;;;;;7.35;5.43;;;;;;;;;;5021106;28;20037;-69
2022/04/18 00:18:57;;;;;;;6.85;4.78;;;;;;;;;;5018807;28;20041;-70
2022/04/18 00:21:23;;;;;;;5.55;4.45;;;;;;;;;;5019189;28;20037;-69
2022/04/18 00:23:49;;;;;;;6.75;4.60;;;;;;;;;;5020438;28;20043;-69
2022/04/18 00:26:14;;;;;;;6.30;5.20;;;;;;;;;;5020374;28;20037;-69
2022/04/18 00:28:40;;;;;;;6.63;4.63;;;;;;;;;;5020777;28;20108;-69
2022/04/18 00:31:06;;;;;;;5.18;3.88;;;;;;;;;;5017571;28;20064;-70
2022/04/18 00:33:32;;;;;;;6.50;4.15;;;;;;;;;;5017909;28;20027;-69
2022/04/18 00:35:57;;;;;;;5.20;4.25;;;;;;;;;;5020162;28;20063;-70
2022/04/18 00:38:23;;;;;;;5.78;4.30;;;;;;;;;;5020644;28;20573;-70
2022/04/18 00:40:49;;;;;;;5.03;3.75;;;;;;;;;;5018571;28;20033;-70
2022/04/18 00:43:15;;;;;;;5.30;4.10;;;;;;;;;;5016983;28;20037;-70
2022/04/18 00:45:41;;;;;;;5.65;4.10;;;;;;;;;;5019752;28;21089;-70
2022/04/18 00:48:06;;;;;;;7.35;4.15;;;;;;;;;;5017732;28;20037;-69
2022/04/18 00:50:34;;;;;;;5.30;4.15;;;;;;;;;;5020755;28;20044;-69
2022/04/18 00:52:59;;;;;;;7.57;4.88;;;;;;;;;;5018273;28;20124;-69
2022/04/18 00:55:27;;;;;;;4.55;3.85;;;;;;;;;;5017377;28;20070;-69
2022/04/18 00:57:54;;;;;;;8.45;4.38;;;;;;;;;;5020124;28;20040;-69
2022/04/18 01:00:20;;;;;;;6.15;4.40;;;;;;;;;;5019784;28;20398;-69
2022/04/18 01:02:46;;;;;;;5.80;4.13;;;;;;;;;;5019844;28;20059;-70
2022/04/18 01:05:11;;;;;;;6.28;4.28;;;;;;;;;;5016598;28;20498;-70
2022/04/18 01:07:38;;;;;;;4.55;3.92;;;;;;;;;;5020335;28;20033;-69
2022/04/18 01:10:04;;;;;;;5.80;4.03;;;;;;;;;;5018174;28;20560;-69
2022/04/18 01:12:30;;;;;;;6.65;3.95;;;;;;;;;;5018673;28;20609;-70
2022/04/18 01:15:06;;;;;;;7.22;3.80;;;;;;;;;;5018202;28;20064;-69
2022/04/18 01:17:50;;;;;;;7.55;3.78;;;;;;;;;;5018806;28;20072;-69
2022/04/18 01:20:21;;;;;;;6.38;4.32;;;;;;;;;;5002521;28;20827;-69
2022/04/18 01:23:07;;;;;;;5.97;4.30;;;;;;;;;;5017963;28;20053;-70
2022/04/18 01:29:01;;;;;;;5.32;4.32;;;;;;;;;;4960510;28;20158;-70
2022/04/18 01:31:37;;;;;;;8.75;4.63;;;;;;;;;;5003299;28;20754;-69
2022/04/18 01:34:04;;;;;;;5.53;4.40;;;;;;;;;;5019100;28;21031;-70
2022/04/18 01:36:30;;;;;;;9.77;4.65;;;;;;;;;;5019311;28;20116;-70
2022/04/18 01:38:59;;;;;;;5.65;4.90;;;;;;;;;;5017422;28;20505;-69
2022/04/18 01:41:25;;;;;;;4.93;4.40;;;;;;;;;;5019798;28;20088;-69
2022/04/18 01:43:51;;;;;;;5.97;4.63;;;;;;;;;;5022536;28;20089;-69
2022/04/18 01:46:18;;;;;;;5.88;4.63;;;;;;;;;;5021575;28;20039;-70
2022/04/18 01:48:44;;;;;;;8.60;5.22;;;;;;;;;;5023369;28;20031;-70
2022/04/18 01:51:09;;;;;;;7.00;4.80;;;;;;;;;;5019623;28;20036;-70
2022/04/18 01:53:36;;;;;;;6.60;4.55;;;;;;;;;;5021341;28;20056;-70
2022/04/18 01:56:01;;;;;;;6.97;4.78;;;;;;;;;;5013210;28;20133;-69
2022/04/18 01:58:32;;;;;;;7.28;4.85;;;;;;;;;;5021731;28;20425;-70
2022/04/18 02:00:58;;;;;;;8.63;4.45;;;;;;;;;;5019987;28;20099;-70
2022/04/18 02:03:23;;;;;;;6.28;4.97;;;;;;;;;;5021099;28;20449;-69
2022/04/18 02:05:52;;;;;;;6.97;4.50;;;;;;;;;;5022067;28;20097;-70
2022/04/18 02:08:18;;;;;;;6.50;4.90;;;;;;;;;;5021776;28;20029;-70
2022/04/18 02:10:44;;;;;;;5.45;4.35;;;;;;;;;;5021767;28;20192;-70
2022/04/18 02:13:13;;;;;;;7.38;4.55;;;;;;;;;;5020454;28;20421;-69
2022/04/18 02:15:39;;;;;;;7.93;4.72;;;;;;;;;;5021840;28;20025;-70
2022/04/18 02:18:05;;;;;;;6.03;4.50;;;;;;;;;;5022073;28;20044;-69
2022/04/18 02:20:31;;;;;;;7.57;4.60;;;;;;;;;;5021760;28;20037;-70
2022/04/18 02:22:56;;;;;;;6.30;4.47;;;;;;;;;;5019607;28;20102;-70
2022/04/18 02:25:23;;;;;;;5.40;4.55;;;;;;;;;;5022087;28;20029;-70
2022/04/18 02:27:51;;;;;;;5.97;5.00;;;;;;;;;;5023240;28;20485;-70
2022/04/18 02:30:17;;;;;;;8.10;5.07;;;;;;;;;;5021538;28;20584;-69
2022/04/18 02:32:50;;;;;;;5.65;4.90;;;;;;;;;;5005755;28;20041;-69
2022/04/18 02:35:22;;;;;;;8.35;5.60;;;;;;;;;;5023931;28;20041;-70
2022/04/18 02:37:51;;;;;;;6.18;5.10;;;;;;;;;;5021905;28;20083;-70
2022/04/18 02:40:21;;;;;;;5.53;4.68;;;;;;;;;;5031444;28;20111;-69
2022/04/18 02:42:47;;;;;;;8.18;5.55;;;;;;;;;;5021558;28;20037;-70
2022/04/18 02:45:19;;;;;;;9.65;6.18;;;;;;;;;;5019335;28;20481;-69
2022/04/18 02:48:11;;;;;;;6.85;5.50;;;;;;;;;;5023738;28;20033;-68
2022/04/18 02:50:41;;;;;;;8.98;5.65;;;;;;;;;;5021046;28;20064;-69
2022/04/18 02:53:07;;;;;;;7.03;5.55;;;;;;;;;;5020585;28;20029;-68
2022/04/18 02:55:41;;;;;;;15.43;6.05;;;;;;;;;;5018983;28;20581;-69
2022/04/18 02:58:06;;;;;;;6.28;5.10;;;;;;;;;;5020938;28;20048;-68
2022/04/18 03:00:34;;;;;;;5.97;4.93;;;;;;;;;;5004919;28;20025;-68
2022/04/18 03:03:00;;;;;;;8.02;5.45;;;;;;;;;;5020160;28;20071;-69
2022/04/18 03:05:26;;;;;;;9.23;5.63;;;;;;;;;;5021107;28;20112;-68
2022/04/18 03:07:52;;;;;;;9.02;6.03;;;;;;;;;;5019255;28;20474;-69
2022/04/18 03:11:02;;;;;;;7.50;5.50;;;;;;;;;;5020131;28;20407;-68
2022/04/18 03:13:06;;;;;;;6.82;4.82;;;;;;;;;;5019777;28;20034;-69
2022/04/18 03:15:31;;;;;;;10.93;5.13;;;;;;;;;;5020267;28;20132;-68
2022/04/18 03:17:57;;;;;;;5.53;4.95;;;;;;;;;;5019276;28;20041;-68
2022/04/18 03:20:23;;;;;;;6.20;5.45;;;;;;;;;;5020690;28;20037;-68
2022/04/18 03:22:49;;;;;;;8.23;5.25;;;;;;;;;;5019466;28;20510;-68
2022/04/18 03:25:25;;;;;;;10.05;5.20;;;;;;;;;;5020013;28;20036;-68
2022/04/18 03:27:50;;;;;;;6.75;5.20;;;;;;;;;;5019978;28;20029;-70
2022/04/18 03:30:16;;;;;;;6.68;5.32;;;;;;;;;;5018101;28;20030;-70
2022/04/18 03:32:46;;;;;;;8.57;5.40;;;;;;;;;;5020054;28;20556;-69
2022/04/18 03:35:12;;;;;;;8.63;5.43;;;;;;;;;;5019598;28;20498;-69
2022/04/18 03:40:22;;;;;;;6.13;5.10;;;;;;;;;;5018533;28;20432;-69
2022/04/18 03:42:48;;;;;;;8.00;5.65;;;;;;;;;;5019348;28;20442;-70
2022/04/18 03:45:15;;;;;;;8.20;5.65;;;;;;;;;;5019217;28;20029;-70
2022/04/18 03:47:40;;;;;;;6.40;5.70;;;;;;;;;;5021283;28;20106;-70
2022/04/18 03:50:07;;;;;;;9.57;6.18;;;;;;;;;;5001734;28;20025;-69
2022/04/18 03:52:37;;;;;;;9.98;5.57;;;;;;;;;;5019481;28;20038;-69
2022/04/18 03:55:04;;;;;;;9.07;5.75;;;;;;;;;;5016333;28;20096;-69
2022/04/18 03:57:34;;;;;;;10.57;6.80;;;;;;;;;;5018072;28;20032;-70
2022/04/18 04:00:06;;;;;;;8.63;6.35;;;;;;;;;;5018608;28;20208;-69
2022/04/18 04:02:39;;;;;;;8.52;6.22;;;;;;;;;;5018068;28;20079;-69
2022/04/18 04:05:07;;;;;;;8.45;6.60;;;;;;;;;;5016148;28;20438;-69
2022/04/18 04:07:33;;;;;;;6.45;5.70;;;;;;;;;;5020028;28;20140;-70
2022/04/18 04:10:18;;;;;;;8.00;5.90;;;;;;;;;;5017201;28;20097;-70
2022/04/18 04:12:44;;;;;;;8.65;4.95;;;;;;;;;;4999836;28;20722;-70
2022/04/18 04:15:28;;;;;;;9.88;5.18;;;;;;;;;;5020049;28;20569;-70
2022/04/18 04:18:02;;;;;;;7.78;6.28;;;;;;;;;;5019529;28;20447;-70
2022/04/18 04:20:27;;;;;;;8.63;6.00;;;;;;;;;;5019351;28;20183;-70
2022/04/18 04:22:53;;;;;;;9.60;5.65;;;;;;;;;;5018919;28;20037;-69
2022/04/18 04:25:41;;;;;;;6.57;5.53;;;;;;;;;;5019112;28;20112;-69
2022/04/18 04:28:12;;;;;;;7.18;5.68;;;;;;;;;;5019569;28;20375;-69
2022/04/18 04:30:38;;;;;;;8.45;5.45;;;;;;;;;;5018321;28;20517;-68
2022/04/18 04:33:05;;;;;;;14.40;6.20;;;;;;;;;;5018628;28;20010;-69
2022/04/18 04:35:31;;;;;;;6.78;5.47;;;;;;;;;;5017500;28;20434;-68
2022/04/18 04:38:02;;;;;;;6.57;5.57;;;;;;;;;;5019047;28;20124;-68
2022/04/18 04:40:55;;;;;;;8.45;5.55;;;;;;;;;;5018189;28;20069;-70
2022/04/18 04:43:41;;;;;;;8.40;5.32;;;;;;;;;;5018677;28;20469;-67
2022/04/18 04:46:09;;;;;;;10.10;5.63;;;;;;;;;;5017151;28;20103;-68
2022/04/18 04:48:43;;;;;;;9.73;6.03;;;;;;;;;;5019259;28;20494;-70
2022/04/18 04:51:14;;;;;;;11.50;5.90;;;;;;;;;;5017596;28;20402;-69
2022/04/18 04:53:40;;;;;;;10.10;6.07;;;;;;;;;;5016978;28;20481;-70
2022/04/18 04:56:07;;;;;;;7.70;6.07;;;;;;;;;;5016455;28;20124;-70
2022/04/18 04:58:36;;;;;;;8.85;5.90;;;;;;;;;;5015944;28;20108;-69
2022/04/18 05:01:07;;;;;;;8.00;5.72;;;;;;;;;;5016619;28;20029;-71
2022/04/18 05:03:50;;;;;;;10.05;5.57;;;;;;;;;;5017157;28;20040;-70
2022/04/18 05:06:15;;;;;;;8.20;5.80;;;;;;;;;;5019256;28;20029;-70
2022/04/18 05:08:46;;;;;;;10.63;6.10;;;;;;;;;;5017668;28;20029;-70
2022/04/18 05:11:13;;;;;;;7.60;5.32;;;;;;;;;;5020179;28;20037;-70
2022/04/18 05:13:50;;;;;;;12.15;6.03;;;;;;;;;;5019013;28;20026;-70
2022/04/18 05:16:19;;;;;;;7.30;5.32;;;;;;;;;;5019716;28;20035;-70
2022/04/18 05:19:03;;;;;;;9.02;5.57;;;;;;;;;;5021028;28;20119;-71
2022/04/18 05:21:30;;;;;;;6.78;4.70;;;;;;;;;;5001950;28;20799;-70
2022/04/18 05:24:01;;;;;;;5.88;4.88;;;;;;;;;;5017785;28;20037;-70
2022/04/18 05:26:28;;;;;;;6.43;4.80;;;;;;;;;;5022291;28;20562;-71
2022/04/18 05:28:53;;;;;;;7.78;4.88;;;;;;;;;;5018999;28;20119;-70
2022/04/18 05:31:20;;;;;;;7.65;4.75;;;;;;;;;;5017175;28;20029;-70
2022/04/18 05:33:47;;;;;;;7.82;4.97;;;;;;;;;;5017986;28;20367;-70
2022/04/18 05:36:30;;;;;;;8.07;4.65;;;;;;;;;;5019118;28;20037;-70
2022/04/18 05:38:57;;;;;;;7.10;4.28;;;;;;;;;;5018412;28;20061;-70
2022/04/18 05:41:31;;;;;;;8.18;4.03;;;;;;;;;;5019256;28;20038;-70
2022/04/18 05:43:56;;;;;;;7.28;3.90;;;;;;;;;;5022741;28;20034;-70
2022/04/18 05:46:27;;;;;;;6.20;4.30;;;;;;;;;;5024473;28;20050;-70
2022/04/18 05:48:55;;;;;;;6.78;4.13;;;;;;;;;;5025728;28;20041;-70
2022/04/18 05:51:20;;;;;;;6.00;4.47;;;;;;;;;;5029838;28;20040;-70
2022/04/18 05:53:46;;;;;;;5.60;4.13;;;;;;;;;;5019237;28;20025;-67
2022/04/18 05:56:27;;;;;;;7.43;3.92;;;;;;;;;;5023350;28;20068;-67
2022/04/18 05:58:56;;;;;;;7.93;4.22;;;;;;;;;;5024047;28;20033;-67
2022/04/18 06:01:42;;;;;;;6.30;4.25;;;;;;;;;;5018514;28;20095;-76
2022/04/18 06:04:15;;;;;;;7.05;4.30;;;;;;;;;;5018118;28;20034;-73
2022/04/18 06:06:48;;;;;;;10.35;4.13;;;;;;;;;;5020826;28;20087;-73
2022/04/18 06:09:15;;;;;;;8.25;4.68;;;;;;;;;;5020105;28;20048;-71
2022/04/18 06:11:41;;;;;;;8.55;4.10;;;;;;;;;;5020085;28;20037;-73
2022/04/18 06:14:14;;;;;;;8.82;3.40;;;;;;;;;;5017440;28;20025;-71
2022/04/18 06:16:45;;;;;;;5.97;3.93;;;;;;;;;;5018621;28;20120;-75
2022/04/18 06:19:13;;;;;;;5.43;4.13;;;;;;;;;;5020321;28;20502;-72
2022/04/18 06:21:39;;;;;;;5.60;3.85;;;;;;;;;;5019554;28;20037;-71
2022/04/18 06:24:07;;;;;;;5.38;3.58;;;;;;;;;;5018476;28;20112;-72
2022/04/18 06:26:39;;;;;;;7.03;3.60;;;;;;;;;;5020126;28;20095;-73
2022/04/18 06:29:06;;;;;;;7.07;3.30;;;;;;;;;;5020065;28;20029;-73
2022/04/18 06:31:33;;;;;;;4.15;3.50;;;;;;;;;;5018573;28;20040;-73
2022/04/18 06:34:03;;;;;;;4.07;3.35;;;;;;;;;;5012669;28;20068;-73
2022/04/18 06:36:30;;;;;;;6.15;4.05;;;;;;;;;;5016431;28;20498;-74
2022/04/18 06:39:18;;;;;;;4.95;3.65;;;;;;;;;;5016990;28;20045;-73
2022/04/18 06:41:45;;;;;;;5.90;3.67;;;;;;;;;;4999643;28;20044;-74
2022/04/18 06:44:17;;;;;;;5.60;3.63;;;;;;;;;;5019014;28;20520;-71
2022/04/18 06:46:50;;;;;;;6.43;3.58;;;;;;;;;;5015567;28;20128;-71
2022/04/18 06:49:31;;;;;;;5.68;3.72;;;;;;;;;;5020516;28;20033;-71
2022/04/18 06:52:23;;;;;;;4.53;3.58;;;;;;;;;;5004198;28;20033;-71
2022/04/18 06:55:08;;;;;;;4.95;3.60;;;;;;;;;;5019420;28;20051;-70
2022/04/18 06:57:36;;;;;;;6.43;3.70;;;;;;;;;;5017968;28;21091;-69
2022/04/18 07:00:09;;;;;;;4.22;3.40;;;;;;;;;;5019059;28;20437;-70
2022/04/18 07:02:35;;;;;;;4.28;3.60;;;;;;;;;;5017097;28;20045;-70
2022/04/18 07:05:01;;;;;;;7.35;3.58;;;;;;;;;;5016335;28;20040;-71
2022/04/18 07:07:27;;;;;;;4.13;3.33;;;;;;;;;;5011757;28;20064;-70
2022/04/18 07:09:52;;;;;;;8.32;3.72;;;;;;;;;;5015439;28;20602;-73
2022/04/18 07:12:24;;;;;;;4.38;3.38;;;;;;;;;;5002419;28;20036;-72
2022/04/18 07:14:51;;;;;;;6.43;3.55;;;;;;;;;;5017615;28;20036;-72
2022/04/18 07:17:17;;;;;;;4.88;3.03;;;;;;;;;;5017926;28;20041;-72
2022/04/18 07:19:42;;;;;;;3.80;3.13;;;;;;;;;;5018821;28;20112;-73
2022/04/18 07:22:18;;;;;;;4.38;3.00;;;;;;;;;;5019833;28;20026;-72
2022/04/18 07:24:44;;;;;;;5.22;3.30;;;;;;;;;;5020022;28;20702;-72
2022/04/18 07:27:10;;;;;;;4.10;3.30;;;;;;;;;;5020025;28;20144;-72
2022/04/18 07:29:43;;;;;;;4.03;3.55;;;;;;;;;;5019117;28;20037;-71
2022/04/18 07:32:09;;;;;;;4.10;3.15;;;;;;;;;;5020026;28;20033;-73
2022/04/18 07:34:34;;;;;;;3.75;3.00;;;;;;;;;;5021676;28;20989;-73
2022/04/18 07:37:01;;;;;;;5.05;3.25;;;;;;;;;;5021041;28;20056;-73
2022/04/18 07:39:27;;;;;;;5.13;3.95;;;;;;;;;;5019726;28;20026;-73
2022/04/18 07:41:54;;;;;;;4.70;3.55;;;;;;;;;;5018352;28;20136;-73
2022/04/18 07:44:23;;;;;;;5.10;3.47;;;;;;;;;;5020977;28;20132;-73
2022/04/18 07:46:49;;;;;;;4.00;3.38;;;;;;;;;;5020523;28;20120;-73
2022/04/18 07:49:28;;;;;;;7.63;3.38;;;;;;;;;;5017799;28;20083;-73
2022/04/18 07:51:54;;;;;;;7.45;4.40;;;;;;;;;;5018302;28;20041;-73
2022/04/18 07:54:38;;;;;;;5.20;3.38;;;;;;;;;;5021810;28;20161;-71
2022/04/18 07:57:05;;;;;;;4.18;3.10;;;;;;;;;;5021114;28;20044;-73
2022/04/18 07:59:37;;;;;;;3.13;2.83;;;;;;;;;;5018319;28;20056;-73
2022/04/18 08:02:08;;;;;;;4.55;3.05;;;;;;;;;;5017072;28;20255;-73
2022/04/18 08:04:58;;;;;;;5.50;3.25;;;;;;;;;;5017396;28;20037;-72
2022/04/18 08:07:52;;;;;;;3.05;2.75;;;;;;;;;;5007851;28;20037;-73
2022/04/18 08:10:18;;;;;;;3.30;2.42;;;;;;;;;;5017175;28;20037;-74
2022/04/18 08:12:44;;;;;;;13.77;2.70;;;;;;;;;;5017395;28;20037;-75
2022/04/18 08:15:41;;;;;;;3.50;2.83;;;;;;;;;;4992320;28;20064;-72
2022/04/18 08:18:22;;;;;;;3.53;2.97;;;;;;;;;;5017571;28;20037;-74
2022/04/18 08:20:53;;;;;;;3.72;2.42;;;;;;;;;;5028316;28;20094;-76
2022/04/18 08:23:19;;;;;;;3.40;2.95;;;;;;;;;;5002344;28;20048;-74
2022/04/18 08:26:24;;;;;;;4.32;2.75;;;;;;;;;;4977354;28;20038;-74
2022/04/18 08:28:53;;;;;;;2.92;2.60;;;;;;;;;;4978942;28;20153;-75
2022/04/18 08:31:20;;;;;;;2.55;2.13;;;;;;;;;;4989020;28;20091;-78
2022/04/18 08:33:56;;;;;;;4.05;3.08;;;;;;;;;;5017701;28;20034;-76
2022/04/18 08:36:21;;;;;;;4.22;2.50;;;;;;;;;;5015082;28;20033;-76
2022/04/18 08:38:48;;;;;;;3.20;2.65;;;;;;;;;;5017118;28;20034;-73
2022/04/18 08:41:44;;;;;;;2.92;2.30;;;;;;;;;;5001971;28;20025;-72
2022/04/18 08:44:13;;;;;;;2.38;2.00;;;;;;;;;;5017610;28;20030;-72
2022/04/18 08:46:40;;;;;;;2.88;2.30;;;;;;;;;;5017773;28;20494;-72
2022/04/18 08:54:39;;;;;;;3.13;2.28;;;;;;;;;;5026712;28;21211;-73
2022/04/18 08:57:06;;;;;;;6.20;2.65;;;;;;;;;;5020293;28;20140;-73
2022/04/18 08:59:32;;;;;;;2.47;2.28;;;;;;;;;;5022184;28;20029;-74
2022/04/18 09:01:59;;;;;;;3.83;2.33;;;;;;;;;;5020465;28;20144;-72
2022/04/18 09:04:53;;;;;;;3.67;2.40;;;;;;;;;;5011522;28;20502;-73
2022/04/18 09:07:18;;;;;;;5.78;3.20;;;;;;;;;;5021097;28;20104;-72
2022/04/18 09:09:55;;;;;;;2.70;2.20;;;;;;;;;;5019009;28;20383;-72
2022/04/18 09:12:24;;;;;;;3.63;2.37;;;;;;;;;;5020832;28;20048;-71
2022/04/18 09:15:09;;;;;;;2.65;2.22;;;;;;;;;;5020321;28;21138;-71
2022/04/18 09:17:37;;;;;;;13.63;2.92;;;;;;;;;;5022341;28;20036;-70
2022/04/18 09:20:23;;;;;;;4.72;2.50;;;;;;;;;;5019880;28;20037;-70
2022/04/18 09:22:52;;;;;;;3.00;1.80;;;;;;;;;;5020147;28;20026;-70
2022/04/18 09:25:20;;;;;;;2.47;2.25;;;;;;;;;;5022071;28;20056;-70
2022/04/18 09:27:58;;;;;;;2.70;2.40;;;;;;;;;;5023999;28;20100;-70
2022/04/18 09:30:31;;;;;;;3.28;1.83;;;;;;;;;;5020696;28;20076;-70
2022/04/18 09:33:03;;;;;;;2.13;1.90;;;;;;;;;;5021324;28;20433;-70
2022/04/18 09:35:50;;;;;;;2.38;2.10;;;;;;;;;;5021917;28;20037;-70
2022/04/18 09:38:18;;;;;;;3.47;2.22;;;;;;;;;;5021868;28;20029;-70
2022/04/18 09:41:11;;;;;;;2.33;2.05;;;;;;;;;;4994453;28;20041;-71
2022/04/18 09:43:40;;;;;;;;;;;;;;;;;;5006395;28;20179;-71
2022/04/18 09:46:09;;;;;;;5.18;2.17;;;;;;;;;;5020832;28;20306;-69
2022/04/18 09:48:43;;;;;;;2.95;2.15;;;;;;;;;;5019950;28;20029;-69
2022/04/18 09:51:13;;;;;;;2.17;1.65;;;;;;;;;;5019857;28;20475;-69
2022/04/18 09:53:58;;;;;;;2.17;1.80;;;;;;;;;;5017660;28;20046;-69
2022/04/18 09:56:26;;;;;;;2.42;1.85;;;;;;;;;;5023324;28;21134;-70
2022/04/18 09:58:53;;;;;;;3.47;2.08;;;;;;;;;;5023565;28;20457;-70
2022/04/18 10:01:19;;;;;;;4.22;1.85;;;;;;;;;;5022704;28;20037;-71
2022/04/18 10:03:46;;;;;;;4.82;2.30;;;;;;;;;;5021134;28;20116;-71
2022/04/18 10:06:12;;;;;;;3.42;2.05;;;;;;;;;;5022842;28;21027;-69
2022/04/18 10:08:38;;;;;;;2.85;2.03;;;;;;;;;;5023280;28;20520;-70
2022/04/18 10:11:07;;;;;;;2.90;1.98;;;;;;;;;;5021361;28;20029;-69
2022/04/18 10:13:35;;;;;;;3.45;1.80;;;;;;;;;;5022252;28;20048;-69
2022/04/18 10:16:01;;;;;;;5.13;1.88;;;;;;;;;;5021391;28;20029;-70
2022/04/18 10:18:28;;;;;;;2.85;1.77;;;;;;;;;;5024351;28;20128;-69
2022/04/18 10:21:05;;;;;;;2.63;1.90;;;;;;;;;;5023176;28;20043;-72
2022/04/18 10:24:05;;;;;;;2.35;1.90;;;;;;;;;;5004894;28;20036;-71
2022/04/18 10:27:05;;;;;;;3.50;2.00;;;;;;;;;;5020400;28;20139;-70
2022/04/18 10:29:36;;;;;;;2.15;1.75;;;;;;;;;;5022377;28;20067;-70
2022/04/18 10:32:03;;;;;;;3.30;1.88;;;;;;;;;;5021299;28;20037;-70
2022/04/18 10:34:31;;;;;;;5.68;2.20;;;;;;;;;;5022867;28;20729;-70
2022/04/18 10:37:00;;;;;;;2.22;2.00;;;;;;;;;;5021029;28;20112;-70
2022/04/18 10:39:34;;;;;;;1.75;1.50;;;;;;;;;;5023451;28;20067;-71
2022/04/18 10:42:18;;;;;;;4.78;1.73;;;;;;;;;;5019586;28;20083;-71
2022/04/18 10:44:57;;;;;;;2.15;1.90;;;;;;;;;;5013613;28;20100;-71
2022/04/18 10:47:23;;;;;;;2.97;2.00;;;;;;;;;;5015780;28;20069;-70
2022/04/18 10:50:18;;;;;;;2.35;2.15;;;;;;;;;;5016655;28;20133;-71
2022/04/18 10:53:06;;;;;;;3.60;1.90;;;;;;;;;;5018465;28;20034;-69
2022/04/18 10:55:31;;;;;;;2.95;1.80;;;;;;;;;;5008481;28;20119;-70
2022/04/18 10:58:13;;;;;;;2.70;2.20;;;;;;;;;;5018053;28;20124;-70
2022/04/18 11:00:51;;;;;;;6.75;2.08;;;;;;;;;;5018718;28;20596;-70
2022/04/18 11:03:52;;;;;;;2.22;1.88;;;;;;;;;;5016715;28;20037;-71
2022/04/18 11:06:17;;;;;;;4.18;1.60;;;;;;;;;;5018266;28;20084;-71
2022/04/18 11:08:58;;;;;;;4.03;1.50;;;;;;;;;;5015513;28;20560;-71
2022/04/18 11:11:23;;;;;;;1.70;1.60;;;;;;;;;;5013001;28;20041;-71
2022/04/18 11:13:49;;;;;;;4.00;1.40;;;;;;;;;;5013913;28;20099;-71
2022/04/18 11:16:24;;;;;;;3.30;1.77;;;;;;;;;;5015257;28;20034;-71
2022/04/18 11:19:09;;;;;;;2.40;1.55;;;;;;;;;;5015500;28;20097;-71
2022/04/18 11:21:56;;;;;;;2.47;1.73;;;;;;;;;;5013200;28;20037;-71
2022/04/18 11:24:40;;;;;;;2.65;1.30;;;;;;;;;;5016164;28;20053;-75
2022/04/18 11:27:16;;;;;;;3.80;2.05;;;;;;;;;;5015657;28;20044;-74
2022/04/18 11:29:50;;;;;;;3.55;1.58;;;;;;;;;;5017147;28;20038;-70
2022/04/18 11:32:19;;;;;;;1.85;1.40;;;;;;;;;;5018405;28;20413;-72
2022/04/18 11:34:47;;;;;;;2.60;1.60;;;;;;;;;;5018175;28;20041;-69
2022/04/18 11:37:24;;;;;;;2.20;1.52;;;;;;;;;;5017870;28;20115;-69
2022/04/18 11:39:53;;;;;;;2.65;1.40;;;;;;;;;;5018724;28;20041;-69
2022/04/18 11:42:21;;;;;;;1.33;1.20;;;;;;;;;;5017097;28;20120;-70
2022/04/18 11:44:48;;;;;;;2.80;1.38;;;;;;;;;;5021212;28;20087;-69
2022/04/18 11:47:15;;;;;;;1.38;1.25;;;;;;;;;;5021705;28;20122;-69
2022/04/18 11:49:44;;;;;;;1.40;1.13;;;;;;;;;;5021907;28;20049;-69
2022/04/18 11:52:18;;;;;;;1.65;1.52;;;;;;;;;;5019814;28;20044;-69
2022/04/18 11:54:56;;;;;;;1.85;1.35;;;;;;;;;;5019825;28;20045;-70
2022/04/18 11:57:21;;;;;;;3.33;1.45;;;;;;;;;;5023335;28;20041;-69
2022/04/18 11:59:47;;;;;;;1.40;1.10;;;;;;;;;;5019046;28;20029;-69
2022/04/18 12:07:46;;;;;;;1.60;1.10;;;;;;;;;;5019047;28;20033;-69
2022/04/18 12:10:26;;;;;;;1.95;1.20;;;;;;;;;;5020230;28;20103;-69
2022/04/18 12:12:52;;;;;;;1.58;1.20;;;;;;;;;;5019634;28;20418;-69
2022/04/18 12:15:25;;;;;;;2.47;1.40;;;;;;;;;;5019016;28;20029;-69
2022/04/18 12:17:56;;;;;;;1.77;1.30;;;;;;;;;;5020911;28;20124;-69
2022/04/18 12:20:29;;;;;;;1.20;1.10;;;;;;;;;;5021061;28;20124;-69
2022/04/18 12:23:00;;;;;;;1.40;1.20;;;;;;;;;;5018856;28;20041;-69
2022/04/18 12:25:31;;;;;;;1.75;1.30;;;;;;;;;;5020566;28;20490;-69
2022/04/18 12:28:04;;;;;;;1.23;1.13;;;;;;;;;;5020073;28;20036;-69
2022/04/18 12:30:30;;;;;;;1.17;1.08;;;;;;;;;;5018963;28;20045;-69
2022/04/18 12:33:09;;;;;;;1.55;0.90;;;;;;;;;;5019268;28;20041;-69
2022/04/18 12:35:41;;;;;;;1.15;1.05;;;;;;;;;;5021552;28;20506;-69
2022/04/18 12:38:12;;;;;;;5.60;1.48;;;;;;;;;;5018196;28;20129;-70
2022/04/18 12:40:39;;;;;;;1.53;1.13;;;;;;;;;;5022245;28;20033;-69
2022/04/18 12:43:15;;;;;;;1.60;1.20;;;;;;;;;;5022028;28;20038;-69
2022/04/18 12:45:52;;;;;;;1.20;1.10;;;;;;;;;;5020358;28;20122;-69
2022/04/18 12:48:24;;;;;;;10.85;1.30;;;;;;;;;;5018095;28;20033;-68
2022/04/18 12:50:51;;;;;;;1.50;1.27;;;;;;;;;;5016425;28;20033;-69
2022/04/18 12:53:18;;;;;;;1.77;1.27;;;;;;;;;;5016403;28;20026;-69
2022/04/18 12:55:44;;;;;;;1.40;1.25;;;;;;;;;;5017363;28;20548;-69
2022/04/18 12:58:20;;;;;;;2.42;1.30;;;;;;;;;;5015716;28;20021;-69
2022/04/18 13:00:48;;;;;;;2.05;1.02;;;;;;;;;;5014088;28;20037;-69
2022/04/18 13:03:14;;;;;;;1.48;1.08;;;;;;;;;;5014463;28;20052;-69
2022/04/18 13:05:46;;;;;;;3.83;1.40;;;;;;;;;;5015702;28;20025;-69
2022/04/18 13:08:15;;;;;;;1.58;1.00;;;;;;;;;;5014509;28;20087;-69
2022/04/18 13:10:41;;;;;;;1.92;1.60;;;;;;;;;;5013720;28;20037;-69
2022/04/18 13:13:11;;;;;;;2.40;1.13;;;;;;;;;;5014276;28;20041;-69
2022/04/18 13:15:39;;;;;;;1.60;1.30;;;;;;;;;;5015078;28;20453;-69
2022/04/18 13:18:10;;;;;;;1.90;1.20;;;;;;;;;;5014187;28;20041;-69
2022/04/18 13:20:37;;;;;;;1.13;1.00;;;;;;;;;;5014835;28;20037;-69
2022/04/18 13:23:03;;;;;;;2.53;1.42;;;;;;;;;;5012917;28;20037;-69
2022/04/18 13:25:30;;;;;;;1.35;1.23;;;;;;;;;;5014201;28;20033;-69
2022/04/18 13:27:57;;;;;;;1.52;1.00;;;;;;;;;;5014869;28;20048;-69
2022/04/18 13:30:23;;;;;;;2.75;1.20;;;;;;;;;;5014424;28;20036;-69
2022/04/18 13:32:50;;;;;;;1.35;1.23;;;;;;;;;;5013566;28;20030;-69
2022/04/18 13:35:17;;;;;;;4.22;1.30;;;;;;;;;;5016118;28;20041;-70
2022/04/18 13:37:44;;;;;;;1.50;1.20;;;;;;;;;;4997794;28;20562;-70
2022/04/18 13:40:15;;;;;;;1.83;1.20;;;;;;;;;;5016274;28;20033;-69
2022/04/18 13:42:42;;;;;;;2.20;1.38;;;;;;;;;;5018170;28;20037;-71
2022/04/18 13:45:11;;;;;;;3.05;1.58;;;;;;;;;;5021800;28;20044;-68
2022/04/18 13:47:41;;;;;;;2.80;1.80;;;;;;;;;;5021188;28;20029;-71
2022/04/18 13:50:11;;;;;;;1.85;1.20;;;;;;;;;;5020817;28;20119;-70
2022/04/18 13:52:40;;;;;;;1.25;1.10;;;;;;;;;;5019996;28;20082;-71
2022/04/18 13:55:09;;;;;;;1.45;1.35;;;;;;;;;;5020853;28;20068;-72
2022/04/18 13:57:36;;;;;;;1.42;1.25;;;;;;;;;;5021358;28;20033;-69
2022/04/18 14:00:03;;;;;;;1.50;1.02;;;;;;;;;;5021931;28;20075;-71
2022/04/18 14:02:37;;;;;;;2.17;1.00;;;;;;;;;;5021610;28;20099;-71
2022/04/18 14:05:03;;;;;;;1.85;1.08;;;;;;;;;;5025269;28;20037;-71
2022/04/18 14:07:28;;;;;;;0.95;0.90;;;;;;;;;;5028297;28;20350;-71
2022/04/18 14:09:54;;;;;;;1.42;1.17;;;;;;;;;;5027787;28;20440;-70
2022/04/18 14:12:19;;;;;;;2.28;1.25;;;;;;;;;;5026586;28;20067;-70
2022/04/18 14:20:22;;;;;;;1.75;1.30;;;;;;;;;;5019941;28;20656;-70
2022/04/18 14:22:52;;;;;;;1.98;1.30;;;;;;;;;;5013833;28;21357;-70
2022/04/18 14:25:18;;;;;;;1.13;1.02;;;;;;;;;;5017338;28;20037;-69
2022/04/18 14:27:44;;;;;;;1.25;1.00;;;;;;;;;;5017465;28;20033;-70
2022/04/18 14:30:13;;;;;;;2.80;1.20;;;;;;;;;;5018754;28;20033;-70
2022/04/18 14:32:41;;;;;;;1.60;1.00;;;;;;;;;;5019594;28;20029;-70
2022/04/18 14:35:08;;;;;;;1.73;1.50;;;;;;;;;;5016454;28;20041;-70
2022/04/18 14:37:34;;;;;;;1.63;1.17;;;;;;;;;;5015918;28;20048;-70
2022/04/18 14:39:59;;;;;;;1.17;1.08;;;;;;;;;;5012911;28;20461;-70
2022/04/18 14:42:25;;;;;;;1.20;1.10;;;;;;;;;;5013369;28;20037;-70
2022/04/18 14:44:51;;;;;;;1.90;1.20;;;;;;;;;;5013836;28;20061;-72
2022/04/18 14:47:17;;;;;;;1.83;1.30;;;;;;;;;;5015649;28;20029;-71
2022/04/18 14:49:43;;;;;;;1.55;1.13;;;;;;;;;;5016371;28;20090;-71
2022/04/18 14:52:09;;;;;;;1.42;1.30;;;;;;;;;;5018148;28;20685;-71
2022/04/18 14:54:35;;;;;;;2.35;1.38;;;;;;;;;;5017760;28;20136;-71
2022/04/18 14:57:02;;;;;;;1.85;1.23;;;;;;;;;;5014386;28;20033;-70
2022/04/18 14:59:28;;;;;;;2.17;1.17;;;;;;;;;;5016598;28;20494;-71
2022/04/18 15:01:54;;;;;;;1.55;1.10;;;;;;;;;;5013417;28;20036;-71
2022/04/18 15:04:19;;;;;;;1.77;1.30;;;;;;;;;;5015805;28;20375;-72
2022/04/18 15:06:45;;;;;;;1.63;1.27;;;;;;;;;;5016328;28;20670;-72
2022/04/18 15:09:10;;;;;;;3.20;1.30;;;;;;;;;;5017616;28;20147;-71
2022/04/18 15:11:35;;;;;;;2.45;1.23;;;;;;;;;;5014849;28;20033;-71
2022/04/18 15:14:01;;;;;;;1.20;1.10;;;;;;;;;;5016484;28;20985;-71
2022/04/18 15:16:27;;;;;;;2.22;0.90;;;;;;;;;;5014590;28;20033;-71
2022/04/18 15:18:52;;;;;;;2.03;1.20;;;;;;;;;;5018028;28;20061;-72
2022/04/18 15:21:18;;;;;;;1.38;1.10;;;;;;;;;;5018262;28;20081;-71
2022/04/18 15:23:48;;;;;;;1.17;1.08;;;;;;;;;;5018226;28;20042;-70
2022/04/18 15:26:16;;;;;;;0.98;0.88;;;;;;;;;;5016255;28;20092;-71